Woolsey, Georgia
Current Conditions -  °F | °C
As of 4:53 PM on Monday 26 Jan 2015 (Local Time) from KFFC Reporting Station
Overcast Overcast  
Wind Chill: 30°   Ceiling: 2600
Heat Index: 39°   Visibility: 10mi
Dew Point: 29°   Wind: 16mph
Humidity: 67%   Direction: 310°NW
Pressure: 29.91"   Gusts: NA
Location:  33.4824°N, 84.4882°W
Report Text: KFFC 262153Z AUTO 31014KT 10SM OVC026 04/M02 A2991 RMK AO2 SLP135 T00391017
Loading
Personal Weather Stations






























Interactive Weather Map New forecast layout! Learn more

10-Day Weather Forecast

Advertisements
Track Severe Weather on mobile